This is the latest recevied weather packets stored in our database for station/object HS6PNA-2. If no packets are shown the sender has not sent any weather packets the latest 10 day(s).
| Time | Temp. | Humidity | Pressure | Rain* | Wind** | Luminosity | Snow |
|---|---|---|---|---|---|---|---|
| 1777834952 | 34.44° C | 42% | 1003 hPa | - | - | 0 W/m² | - |
| 1777834372 | 34.44° C | 42% | 1003 hPa | - | - | 0 W/m² | - |
| 1777833447 | 34.44° C | 42% | 1003 hPa | - | - | 0 W/m² | - |
| 1777832523 | 34.44° C | 41% | 1003 hPa | - | - | 0 W/m² | - |
| 1777831598 | 34.44° C | 40% | 1004 hPa | - | - | 0 W/m² | - |
| 1777830674 | 34.44° C | 40% | 1004 hPa | - | - | 0 W/m² | - |
| 1777829749 | 34.44° C | 40% | 1004 hPa | - | - | 0 W/m² | - |
| 1777828825 | 34.44° C | 39% | 1004 hPa | - | - | 0 W/m² | - |
| 1777827900 | 34.44° C | 40% | 1004 hPa | - | - | 0 W/m² | - |
| 1777826976 | 34.44° C | 39% | 1004 hPa | - | - | 0 W/m² | - |
| 1777826052 | 34.44° C | 39% | 1004 hPa | - | - | 0 W/m² | - |
| 1777825127 | 34.44° C | 39% | 1004 hPa | - | - | 0 W/m² | - |
| 1777824203 | 34.44° C | 39% | 1004 hPa | - | - | 0 W/m² | - |
| 1777823279 | 34.44° C | 41% | 1004 hPa | - | - | 0 W/m² | - |
| 1777822354 | 34.44° C | 40% | 1004 hPa | - | - | 0 W/m² | - |
| 1777821429 | 34.44° C | 38% | 1003 hPa | - | - | 0 W/m² | - |
| 1777820505 | 33.89° C | 37% | 1003 hPa | - | - | 0 W/m² | - |
| 1777819580 | 32.22° C | 40% | 1003 hPa | - | - | 0 W/m² | - |
| 1777818656 | 30.56° C | 40% | 1003 hPa | - | - | 0 W/m² | - |
| 1777817731 | 29.44° C | 41% | 1002 hPa | - | - | 0 W/m² | - |
| 1777816807 | 30° C | 39% | 1002 hPa | - | - | 0 W/m² | - |
| 1777815882 | 30.56° C | 36% | 1002 hPa | - | - | 0 W/m² | - |
| 1777814958 | 29.44° C | 36% | 1002 hPa | - | - | 0 W/m² | - |
| 1777814034 | 29.44° C | 35% | 1002 hPa | - | - | 0 W/m² | - |
| 1777813109 | 28.89° C | 35% | 1001 hPa | - | - | 0 W/m² | - |
* Rain since midnight (hover to see other rain measurements)
** Current wind speed in m/s (hover to see current wind gust speed)